sensor_id;sensor_type;location;lat;lon;timestamp;pressure;altitude;pressure_sealevel;temperature;humidity
78685;BME280;68002;52.310;6.990;2023-05-20T00:01:53;102138.59;;;12.56;62.62
78685;BME280;68002;52.310;6.990;2023-05-20T00:04:18;102135.91;;;12.56;63.22
78685;BME280;68002;52.310;6.990;2023-05-20T00:06:43;102135.16;;;12.54;63.20
78685;BME280;68002;52.310;6.990;2023-05-20T00:09:08;102131.50;;;12.55;63.43
78685;BME280;68002;52.310;6.990;2023-05-20T00:11:33;102127.25;;;12.52;63.00
78685;BME280;68002;52.310;6.990;2023-05-20T00:13:59;102131.38;;;12.56;63.34
78685;BME280;68002;52.310;6.990;2023-05-20T00:16:24;102127.84;;;12.56;62.93
78685;BME280;68002;52.310;6.990;2023-05-20T00:18:49;102138.72;;;12.54;63.13
78685;BME280;68002;52.310;6.990;2023-05-20T00:21:14;102133.34;;;12.54;63.64
78685;BME280;68002;52.310;6.990;2023-05-20T00:23:39;102134.19;;;12.55;64.11
78685;BME280;68002;52.310;6.990;2023-05-20T00:26:05;102130.53;;;12.56;63.47
78685;BME280;68002;52.310;6.990;2023-05-20T00:28:30;102130.75;;;12.53;64.31
78685;BME280;68002;52.310;6.990;2023-05-20T00:30:55;102132.50;;;12.54;64.02
78685;BME280;68002;52.310;6.990;2023-05-20T00:33:20;102123.44;;;12.55;63.67
78685;BME280;68002;52.310;6.990;2023-05-20T00:35:45;102127.00;;;12.55;63.97
78685;BME280;68002;52.310;6.990;2023-05-20T00:38:11;102135.66;;;12.59;63.98
78685;BME280;68002;52.310;6.990;2023-05-20T00:40:36;102126.88;;;12.57;63.44
78685;BME280;68002;52.310;6.990;2023-05-20T00:43:01;102121.75;;;12.54;63.35
78685;BME280;68002;52.310;6.990;2023-05-20T00:45:26;102127.34;;;12.62;63.73
78685;BME280;68002;52.310;6.990;2023-05-20T00:47:52;102119.44;;;12.60;63.38
78685;BME280;68002;52.310;6.990;2023-05-20T00:50:17;102121.50;;;12.57;63.87
78685;BME280;68002;52.310;6.990;2023-05-20T00:52:43;102124.19;;;12.57;64.23
78685;BME280;68002;52.310;6.990;2023-05-20T00:55:08;102121.16;;;12.50;64.31
78685;BME280;68002;52.310;6.990;2023-05-20T00:57:33;102125.38;;;12.53;63.97
78685;BME280;68002;52.310;6.990;2023-05-20T00:59:59;102120.75;;;12.55;64.64
78685;BME280;68002;52.310;6.990;2023-05-20T01:02:24;102125.53;;;12.51;64.23
78685;BME280;68002;52.310;6.990;2023-05-20T01:04:49;102122.97;;;12.50;64.38
78685;BME280;68002;52.310;6.990;2023-05-20T01:07:15;102107.25;;;12.45;64.59
78685;BME280;68002;52.310;6.990;2023-05-20T01:09:41;102119.28;;;12.51;64.31
78685;BME280;68002;52.310;6.990;2023-05-20T01:12:19;102118.59;;;12.49;64.25
78685;BME280;68002;52.310;6.990;2023-05-20T01:14:50;102116.84;;;12.48;64.62
78685;BME280;68002;52.310;6.990;2023-05-20T01:17:19;102115.16;;;12.47;64.19
78685;BME280;68002;52.310;6.990;2023-05-20T01:19:45;102111.75;;;12.45;64.44
78685;BME280;68002;52.310;6.990;2023-05-20T01:22:12;102114.78;;;12.40;64.81
78685;BME280;68002;52.310;6.990;2023-05-20T01:24:45;102113.41;;;12.35;64.33
78685;BME280;68002;52.310;6.990;2023-05-20T01:27:11;102116.97;;;12.35;64.29
78685;BME280;68002;52.310;6.990;2023-05-20T01:29:37;102116.59;;;12.29;64.74
78685;BME280;68002;52.310;6.990;2023-05-20T01:32:08;102125.00;;;12.24;64.65
78685;BME280;68002;52.310;6.990;2023-05-20T01:34:35;102112.91;;;12.19;64.44
78685;BME280;68002;52.310;6.990;2023-05-20T01:37:03;102115.31;;;12.10;64.74
78685;BME280;68002;52.310;6.990;2023-05-20T01:39:29;102112.25;;;12.04;64.80
78685;BME280;68002;52.310;6.990;2023-05-20T01:41:56;102116.50;;;11.95;65.20
78685;BME280;68002;52.310;6.990;2023-05-20T01:44:21;102111.94;;;11.85;65.64
78685;BME280;68002;52.310;6.990;2023-05-20T01:46:48;102116.91;;;11.78;66.05
78685;BME280;68002;52.310;6.990;2023-05-20T01:49:13;102113.84;;;11.72;65.78
78685;BME280;68002;52.310;6.990;2023-05-20T01:51:39;102121.56;;;11.64;65.95
78685;BME280;68002;52.310;6.990;2023-05-20T01:54:04;102124.38;;;11.62;65.96
78685;BME280;68002;52.310;6.990;2023-05-20T01:56:29;102121.28;;;11.56;66.39
78685;BME280;68002;52.310;6.990;2023-05-20T01:58:55;102112.09;;;11.47;66.25
78685;BME280;68002;52.310;6.990;2023-05-20T02:01:20;102115.97;;;11.43;66.86
78685;BME280;68002;52.310;6.990;2023-05-20T02:03:45;102108.28;;;11.39;67.11
78685;BME280;68002;52.310;6.990;2023-05-20T02:06:10;102105.72;;;11.37;66.80
78685;BME280;68002;52.310;6.990;2023-05-20T02:08:36;102108.63;;;11.34;67.02
78685;BME280;68002;52.310;6.990;2023-05-20T02:11:01;102105.44;;;11.29;67.21
78685;BME280;68002;52.310;6.990;2023-05-20T02:13:27;102106.63;;;11.25;67.16
78685;BME280;68002;52.310;6.990;2023-05-20T02:15:52;102100.00;;;11.18;67.25
78685;BME280;68002;52.310;6.990;2023-05-20T02:18:17;102103.75;;;11.15;68.00
78685;BME280;68002;52.310;6.990;2023-05-20T02:20:43;102100.44;;;11.12;67.33
78685;BME280;68002;52.310;6.990;2023-05-20T02:23:08;102100.44;;;11.12;67.80
78685;BME280;68002;52.310;6.990;2023-05-20T02:25:33;102099.41;;;11.02;68.25
78685;BME280;68002;52.310;6.990;2023-05-20T02:27:58;102094.50;;;10.96;67.51
78685;BME280;68002;52.310;6.990;2023-05-20T02:30:23;102099.22;;;10.92;67.76
78685;BME280;68002;52.310;6.990;2023-05-20T02:32:49;102094.28;;;10.86;67.64
78685;BME280;68002;52.310;6.990;2023-05-20T02:35:14;102084.06;;;10.80;68.31
78685;BME280;68002;52.310;6.990;2023-05-20T02:37:39;102097.63;;;10.77;68.62
78685;BME280;68002;52.310;6.990;2023-05-20T02:40:05;102097.97;;;10.73;68.76
78685;BME280;68002;52.310;6.990;2023-05-20T02:42:30;102094.00;;;10.66;68.45
78685;BME280;68002;52.310;6.990;2023-05-20T02:44:56;102094.34;;;10.61;69.40
78685;BME280;68002;52.310;6.990;2023-05-20T02:47:21;102098.31;;;10.56;69.30
78685;BME280;68002;52.310;6.990;2023-05-20T02:49:46;102082.50;;;10.53;69.20
78685;BME280;68002;52.310;6.990;2023-05-20T02:52:11;102094.88;;;10.54;69.89
78685;BME280;68002;52.310;6.990;2023-05-20T02:54:36;102088.03;;;10.50;70.07
78685;BME280;68002;52.310;6.990;2023-05-20T02:57:02;102087.50;;;10.45;69.78
78685;BME280;68002;52.310;6.990;2023-05-20T02:59:27;102085.13;;;10.40;70.00
78685;BME280;68002;52.310;6.990;2023-05-20T03:01:52;102082.59;;;10.39;69.82
78685;BME280;68002;52.310;6.990;2023-05-20T03:04:17;102092.63;;;10.35;70.56
78685;BME280;68002;52.310;6.990;2023-05-20T03:06:42;102092.63;;;10.35;69.97
78685;BME280;68002;52.310;6.990;2023-05-20T03:09:08;102087.53;;;10.32;70.76
78685;BME280;68002;52.310;6.990;2023-05-20T03:11:33;102092.00;;;10.32;69.75
78685;BME280;68002;52.310;6.990;2023-05-20T03:13:58;102087.63;;;10.31;70.51
78685;BME280;68002;52.310;6.990;2023-05-20T03:16:23;102097.56;;;10.29;70.23
78685;BME280;68002;52.310;6.990;2023-05-20T03:18:48;102098.84;;;10.23;70.28
78685;BME280;68002;52.310;6.990;2023-05-20T03:21:14;102091.13;;;10.19;69.94
78685;BME280;68002;52.310;6.990;2023-05-20T03:23:39;102097.47;;;10.18;70.50
78685;BME280;68002;52.310;6.990;2023-05-20T03:26:04;102096.94;;;10.13;70.22
78685;BME280;68002;52.310;6.990;2023-05-20T03:28:29;102096.34;;;10.07;70.45
78685;BME280;68002;52.310;6.990;2023-05-20T03:30:54;102099.22;;;10.04;70.82
78685;BME280;68002;52.310;6.990;2023-05-20T03:33:20;102091.44;;;10.01;71.23
78685;BME280;68002;52.310;6.990;2023-05-20T03:35:45;102092.25;;;10.02;71.18
78685;BME280;68002;52.310;6.990;2023-05-20T03:38:10;102091.31;;;10.03;71.59
78685;BME280;68002;52.310;6.990;2023-05-20T03:40:35;102093.13;;;10.02;71.19
78685;BME280;68002;52.310;6.990;2023-05-20T03:43:00;102088.75;;;10.01;71.72
78685;BME280;68002;52.310;6.990;2023-05-20T03:45:26;102094.28;;;9.98;72.23
78685;BME280;68002;52.310;6.990;2023-05-20T03:47:51;102094.50;;;9.95;71.59
78685;BME280;68002;52.310;6.990;2023-05-20T03:50:16;102090.97;;;9.95;71.39
78685;BME280;68002;52.310;6.990;2023-05-20T03:52:41;102095.25;;;9.97;70.94
78685;BME280;68002;52.310;6.990;2023-05-20T03:55:07;102097.72;;;10.00;72.23
78685;BME280;68002;52.310;6.990;2023-05-20T03:57:32;102096.13;;;9.98;72.20
78685;BME280;68002;52.310;6.990;2023-05-20T03:59:57;102097.06;;;9.97;73.09
78685;BME280;68002;52.310;6.990;2023-05-20T04:02:23;102105.84;;;9.99;72.01
78685;BME280;68002;52.310;6.990;2023-05-20T04:04:48;102102.31;;;9.98;72.06
78685;BME280;68002;52.310;6.990;2023-05-20T04:07:13;102102.31;;;9.98;71.97
78685;BME280;68002;52.310;6.990;2023-05-20T04:09:38;102106.38;;;10.04;71.90
78685;BME280;68002;52.310;6.990;2023-05-20T04:12:04;102101.16;;;10.02;71.71
78685;BME280;68002;52.310;6.990;2023-05-20T04:14:29;102104.34;;;10.07;72.14
78685;BME280;68002;52.310;6.990;2023-05-20T04:16:55;102103.53;;;10.07;72.13
78685;BME280;68002;52.310;6.990;2023-05-20T04:19:20;102111.34;;;10.10;72.09
78685;BME280;68002;52.310;6.990;2023-05-20T04:21:45;102106.53;;;10.15;72.53
78685;BME280;68002;52.310;6.990;2023-05-20T04:24:10;102107.75;;;10.24;71.54
78685;BME280;68002;52.310;6.990;2023-05-20T04:26:36;102104.84;;;10.27;72.49
78685;BME280;68002;52.310;6.990;2023-05-20T04:29:01;102107.09;;;10.33;72.28
78685;BME280;68002;52.310;6.990;2023-05-20T04:31:26;102109.97;;;10.42;71.77
78685;BME280;68002;52.310;6.990;2023-05-20T04:33:52;102114.03;;;10.48;72.34
78685;BME280;68002;52.310;6.990;2023-05-20T04:36:17;102116.19;;;10.55;71.45
78685;BME280;68002;52.310;6.990;2023-05-20T04:38:43;102114.25;;;10.57;72.06
78685;BME280;68002;52.310;6.990;2023-05-20T04:41:08;102119.06;;;10.65;72.25
78685;BME280;68002;52.310;6.990;2023-05-20T04:43:33;102112.53;;;10.69;71.76
78685;BME280;68002;52.310;6.990;2023-05-20T04:45:59;102117.25;;;10.78;71.75
78685;BME280;68002;52.310;6.990;2023-05-20T04:48:24;102114.84;;;10.86;71.34
78685;BME280;68002;52.310;6.990;2023-05-20T04:50:49;102122.34;;;10.93;70.97
78685;BME280;68002;52.310;6.990;2023-05-20T04:53:15;102114.84;;;10.98;70.67
78685;BME280;68002;52.310;6.990;2023-05-20T04:55:40;102118.44;;;11.10;69.92
78685;BME280;68002;52.310;6.990;2023-05-20T04:58:06;102117.78;;;11.19;69.62
78685;BME280;68002;52.310;6.990;2023-05-20T05:00:31;102123.13;;;11.19;69.72
78685;BME280;68002;52.310;6.990;2023-05-20T05:02:56;102117.34;;;11.25;69.47
78685;BME280;68002;52.310;6.990;2023-05-20T05:05:21;102118.38;;;11.35;69.58
78685;BME280;68002;52.310;6.990;2023-05-20T05:07:46;102113.41;;;11.42;68.64
78685;BME280;68002;52.310;6.990;2023-05-20T05:10:12;102111.25;;;11.47;68.83
78685;BME280;68002;52.310;6.990;2023-05-20T05:12:37;102105.94;;;11.58;67.77
78685;BME280;68002;52.310;6.990;2023-05-20T05:15:03;102102.72;;;11.65;67.94
78685;BME280;68002;52.310;6.990;2023-05-20T05:17:28;102112.63;;;11.76;67.24
78685;BME280;68002;52.310;6.990;2023-05-20T05:19:53;102106.34;;;11.88;66.85
78685;BME280;68002;52.310;6.990;2023-05-20T05:22:18;102095.66;;;11.99;65.77
78685;BME280;68002;52.310;6.990;2023-05-20T05:24:44;102101.78;;;12.01;65.90
78685;BME280;68002;52.310;6.990;2023-05-20T05:27:09;102100.53;;;12.05;65.89
78685;BME280;68002;52.310;6.990;2023-05-20T05:29:34;102097.78;;;12.18;65.62
78685;BME280;68002;52.310;6.990;2023-05-20T05:31:59;102104.13;;;12.28;64.91
78685;BME280;68002;52.310;6.990;2023-05-20T05:34:24;102107.59;;;12.41;64.98
78685;BME280;68002;52.310;6.990;2023-05-20T05:36:50;102105.66;;;12.54;63.70
78685;BME280;68002;52.310;6.990;2023-05-20T05:39:15;102090.16;;;12.57;64.10
78685;BME280;68002;52.310;6.990;2023-05-20T05:41:40;102102.59;;;12.80;62.36
78685;BME280;68002;52.310;6.990;2023-05-20T05:44:05;102103.78;;;12.98;62.75
78685;BME280;68002;52.310;6.990;2023-05-20T05:46:30;102087.34;;;13.03;61.95
78685;BME280;68002;52.310;6.990;2023-05-20T05:48:56;102102.31;;;13.28;60.90
78685;BME280;68002;52.310;6.990;2023-05-20T05:51:21;102099.22;;;13.43;60.90
78685;BME280;68002;52.310;6.990;2023-05-20T05:53:46;102096.75;;;13.62;59.88
78685;BME280;68002;52.310;6.990;2023-05-20T05:56:11;102096.28;;;13.78;59.07
78685;BME280;68002;52.310;6.990;2023-05-20T05:58:37;102102.34;;;13.91;59.79
78685;BME280;68002;52.310;6.990;2023-05-20T06:01:02;102096.19;;;14.00;58.74
78685;BME280;68002;52.310;6.990;2023-05-20T06:03:27;102092.13;;;14.26;58.63
78685;BME280;68002;52.310;6.990;2023-05-20T06:05:52;102096.91;;;14.43;57.83
78685;BME280;68002;52.310;6.990;2023-05-20T06:08:18;102106.34;;;14.58;55.83
78685;BME280;68002;52.310;6.990;2023-05-20T06:10:49;102104.72;;;14.76;54.81
78685;BME280;68002;52.310;6.990;2023-05-20T06:13:15;102095.44;;;14.90;54.65
78685;BME280;68002;52.310;6.990;2023-05-20T06:15:40;102101.06;;;15.17;55.67
78685;BME280;68002;52.310;6.990;2023-05-20T06:18:05;102093.47;;;15.41;55.10
78685;BME280;68002;52.310;6.990;2023-05-20T06:20:31;102099.88;;;15.59;53.94
78685;BME280;68002;52.310;6.990;2023-05-20T06:22:56;102093.22;;;15.73;53.84
78685;BME280;68002;52.310;6.990;2023-05-20T06:25:21;102086.13;;;15.91;53.30
78685;BME280;68002;52.310;6.990;2023-05-20T06:27:46;102083.28;;;15.92;51.00
78685;BME280;68002;52.310;6.990;2023-05-20T06:30:12;102073.50;;;15.82;51.07
78685;BME280;68002;52.310;6.990;2023-05-20T06:32:37;102076.44;;;16.07;52.41
78685;BME280;68002;52.310;6.990;2023-05-20T06:35:02;102064.06;;;16.15;52.02
78685;BME280;68002;52.310;6.990;2023-05-20T06:37:27;102064.06;;;16.24;51.02
78685;BME280;68002;52.310;6.990;2023-05-20T06:39:53;102064.72;;;16.36;50.26
78685;BME280;68002;52.310;6.990;2023-05-20T06:42:19;102062.97;;;16.54;50.26
78685;BME280;68002;52.310;6.990;2023-05-20T06:44:44;102059.53;;;16.61;50.88
78685;BME280;68002;52.310;6.990;2023-05-20T06:47:09;102053.91;;;16.82;50.17
78685;BME280;68002;52.310;6.990;2023-05-20T06:49:34;102043.13;;;16.99;48.99
78685;BME280;68002;52.310;6.990;2023-05-20T06:51:59;102053.69;;;17.20;49.33
78685;BME280;68002;52.310;6.990;2023-05-20T06:54:25;102062.25;;;17.16;49.20
78685;BME280;68002;52.310;6.990;2023-05-20T06:56:50;102053.25;;;17.25;49.26
78685;BME280;68002;52.310;6.990;2023-05-20T06:59:15;102043.19;;;17.35;47.84
78685;BME280;68002;52.310;6.990;2023-05-20T07:01:40;102052.59;;;17.31;47.74
78685;BME280;68002;52.310;6.990;2023-05-20T07:04:05;102045.09;;;17.52;47.03
78685;BME280;68002;52.310;6.990;2023-05-20T07:06:31;102043.81;;;17.46;46.52
78685;BME280;68002;52.310;6.990;2023-05-20T07:08:56;102045.94;;;17.52;46.81
78685;BME280;68002;52.310;6.990;2023-05-20T07:11:21;102043.06;;;17.71;46.56
78685;BME280;68002;52.310;6.990;2023-05-20T07:13:46;102039.59;;;17.79;46.19
78685;BME280;68002;52.310;6.990;2023-05-20T07:16:12;102044.03;;;18.05;45.63
78685;BME280;68002;52.310;6.990;2023-05-20T07:18:37;102052.72;;;17.91;46.44
78685;BME280;68002;52.310;6.990;2023-05-20T07:21:02;102054.09;;;17.95;45.29
78685;BME280;68002;52.310;6.990;2023-05-20T07:23:27;102048.50;;;18.15;46.23
78685;BME280;68002;52.310;6.990;2023-05-20T07:25:52;102050.94;;;18.26;45.73
78685;BME280;68002;52.310;6.990;2023-05-20T07:28:19;102046.25;;;18.36;44.80
78685;BME280;68002;52.310;6.990;2023-05-20T07:30:45;102050.41;;;18.48;44.46
78685;BME280;68002;52.310;6.990;2023-05-20T07:33:10;102044.84;;;18.49;43.75
78685;BME280;68002;52.310;6.990;2023-05-20T07:35:35;102035.38;;;18.87;43.75
78685;BME280;68002;52.310;6.990;2023-05-20T07:38:01;102033.97;;;18.75;43.28
78685;BME280;68002;52.310;6.990;2023-05-20T07:40:26;102042.34;;;18.97;43.65
78685;BME280;68002;52.310;6.990;2023-05-20T07:42:51;102037.47;;;19.09;42.71
78685;BME280;68002;52.310;6.990;2023-05-20T07:45:16;102040.53;;;19.06;42.50
78685;BME280;68002;52.310;6.990;2023-05-20T07:47:42;102026.66;;;19.17;42.57
78685;BME280;68002;52.310;6.990;2023-05-20T07:50:07;102025.88;;;19.33;42.10
78685;BME280;68002;52.310;6.990;2023-05-20T07:52:32;102027.25;;;19.53;41.73
78685;BME280;68002;52.310;6.990;2023-05-20T07:54:58;102010.97;;;19.69;41.32
78685;BME280;68002;52.310;6.990;2023-05-20T07:57:23;102017.41;;;19.92;41.06
78685;BME280;68002;52.310;6.990;2023-05-20T07:59:48;102005.19;;;19.88;40.09
78685;BME280;68002;52.310;6.990;2023-05-20T08:02:13;102008.56;;;19.98;39.91
78685;BME280;68002;52.310;6.990;2023-05-20T08:04:38;102015.06;;;19.65;40.52
78685;BME280;68002;52.310;6.990;2023-05-20T08:07:04;102004.69;;;19.60;40.59
78685;BME280;68002;52.310;6.990;2023-05-20T08:09:30;102008.75;;;19.96;40.44
78685;BME280;68002;52.310;6.990;2023-05-20T08:11:55;101993.66;;;19.78;40.78
78685;BME280;68002;52.310;6.990;2023-05-20T08:14:20;101994.34;;;19.88;40.38
78685;BME280;68002;52.310;6.990;2023-05-20T08:16:45;101986.66;;;20.16;40.54
78685;BME280;68002;52.310;6.990;2023-05-20T08:19:11;101989.88;;;20.11;39.64
78685;BME280;68002;52.310;6.990;2023-05-20T08:21:36;101990.59;;;20.05;39.45
78685;BME280;68002;52.310;6.990;2023-05-20T08:24:01;101993.44;;;20.03;40.03
78685;BME280;68002;52.310;6.990;2023-05-20T08:26:26;101995.84;;;20.23;39.67
78685;BME280;68002;52.310;6.990;2023-05-20T08:28:51;101994.59;;;20.33;39.54
78685;BME280;68002;52.310;6.990;2023-05-20T08:31:17;102001.88;;;20.41;38.94
78685;BME280;68002;52.310;6.990;2023-05-20T08:33:42;101990.38;;;20.31;38.19
78685;BME280;68002;52.310;6.990;2023-05-20T08:36:07;101997.53;;;20.70;39.21
78685;BME280;68002;52.310;6.990;2023-05-20T08:38:33;101984.88;;;20.85;37.52
78685;BME280;68002;52.310;6.990;2023-05-20T08:40:58;101987.06;;;20.90;37.01
78685;BME280;68002;52.310;6.990;2023-05-20T08:43:24;101982.00;;;20.79;36.15
78685;BME280;68002;52.310;6.990;2023-05-20T08:45:49;101986.38;;;20.88;36.67
78685;BME280;68002;52.310;6.990;2023-05-20T08:48:16;101984.84;;;20.93;35.66
78685;BME280;68002;52.310;6.990;2023-05-20T08:50:43;101971.44;;;20.53;38.05
78685;BME280;68002;52.310;6.990;2023-05-20T08:53:09;101978.91;;;20.90;37.55
78685;BME280;68002;52.310;6.990;2023-05-20T08:55:41;101980.66;;;20.83;36.32
78685;BME280;68002;52.310;6.990;2023-05-20T08:58:06;101978.38;;;21.25;35.74
78685;BME280;68002;52.310;6.990;2023-05-20T09:00:31;101976.75;;;21.39;35.09
78685;BME280;68002;52.310;6.990;2023-05-20T09:02:58;101964.53;;;21.35;34.55
78685;BME280;68002;52.310;6.990;2023-05-20T09:05:23;101976.63;;;21.32;35.53
78685;BME280;68002;52.310;6.990;2023-05-20T09:07:49;101970.28;;;21.40;34.67
78685;BME280;68002;52.310;6.990;2023-05-20T09:10:14;101974.41;;;21.73;34.24
78685;BME280;68002;52.310;6.990;2023-05-20T09:12:39;101973.75;;;21.93;34.54
78685;BME280;68002;52.310;6.990;2023-05-20T09:15:05;101976.84;;;22.20;34.15
78685;BME280;68002;52.310;6.990;2023-05-20T09:17:33;101971.78;;;22.17;32.97
78685;BME280;68002;52.310;6.990;2023-05-20T09:19:59;101961.59;;;21.81;33.34
78685;BME280;68002;52.310;6.990;2023-05-20T09:22:27;101960.81;;;21.73;34.12
78685;BME280;68002;52.310;6.990;2023-05-20T09:24:53;101959.94;;;22.10;33.90
78685;BME280;68002;52.310;6.990;2023-05-20T09:27:20;101955.25;;;22.04;33.35
78685;BME280;68002;52.310;6.990;2023-05-20T09:29:49;101951.31;;;22.06;34.20
78685;BME280;68002;52.310;6.990;2023-05-20T09:32:15;101955.44;;;22.46;33.63
78685;BME280;68002;52.310;6.990;2023-05-20T09:34:40;101965.56;;;22.81;34.57
78685;BME280;68002;52.310;6.990;2023-05-20T09:37:07;101942.03;;;23.16;32.56
78685;BME280;68002;52.310;6.990;2023-05-20T09:39:56;101937.13;;;22.90;32.19
78685;BME280;68002;52.310;6.990;2023-05-20T09:42:22;101951.38;;;22.71;33.28
78685;BME280;68002;52.310;6.990;2023-05-20T09:44:50;101927.13;;;22.76;32.51
78685;BME280;68002;52.310;6.990;2023-05-20T09:47:16;101935.19;;;22.55;32.50
78685;BME280;68002;52.310;6.990;2023-05-20T09:49:42;101944.69;;;22.73;33.42
78685;BME280;68002;52.310;6.990;2023-05-20T09:52:09;101948.66;;;22.71;33.02
78685;BME280;68002;52.310;6.990;2023-05-20T09:54:36;101946.22;;;22.47;32.83
78685;BME280;68002;52.310;6.990;2023-05-20T09:57:02;101916.03;;;22.48;34.14
78685;BME280;68002;52.310;6.990;2023-05-20T09:59:28;101941.63;;;22.18;32.88
78685;BME280;68002;52.310;6.990;2023-05-20T10:01:55;101945.66;;;21.93;34.05
78685;BME280;68002;52.310;6.990;2023-05-20T10:04:22;101915.63;;;21.41;34.46
78685;BME280;68002;52.310;6.990;2023-05-20T10:10:02;101923.81;;;20.88;36.42
78685;BME280;68002;52.310;6.990;2023-05-20T10:20:47;101931.84;;;21.72;33.62
78685;BME280;68002;52.310;6.990;2023-05-20T10:23:23;101928.28;;;21.34;35.62
78685;BME280;68002;52.310;6.990;2023-05-20T10:25:50;101909.31;;;21.63;35.22
78685;BME280;68002;52.310;6.990;2023-05-20T10:28:15;101914.81;;;21.92;35.51
78685;BME280;68002;52.310;6.990;2023-05-20T10:30:49;101924.06;;;22.06;34.84
78685;BME280;68002;52.310;6.990;2023-05-20T10:33:16;101908.44;;;22.29;34.44
78685;BME280;68002;52.310;6.990;2023-05-20T10:35:46;101902.19;;;22.50;33.67
78685;BME280;68002;52.310;6.990;2023-05-20T10:38:12;101893.84;;;22.37;33.78
78685;BME280;68002;52.310;6.990;2023-05-20T10:40:37;101896.84;;;22.42;34.24
78685;BME280;68002;52.310;6.990;2023-05-20T10:43:15;101893.22;;;22.20;34.21
78685;BME280;68002;52.310;6.990;2023-05-20T10:45:48;101880.66;;;22.69;34.24
78685;BME280;68002;52.310;6.990;2023-05-20T10:48:30;101885.13;;;22.56;33.79
78685;BME280;68002;52.310;6.990;2023-05-20T10:51:00;101889.94;;;22.75;33.78
78685;BME280;68002;52.310;6.990;2023-05-20T10:53:26;101885.41;;;22.82;33.33
78685;BME280;68002;52.310;6.990;2023-05-20T10:55:53;101867.81;;;22.84;33.05
78685;BME280;68002;52.310;6.990;2023-05-20T10:58:20;101867.50;;;22.94;33.51
78685;BME280;68002;52.310;6.990;2023-05-20T11:00:47;101868.50;;;22.93;32.76
78685;BME280;68002;52.310;6.990;2023-05-20T11:03:13;101871.53;;;23.40;31.98
78685;BME280;68002;52.310;6.990;2023-05-20T11:05:39;101864.22;;;23.26;31.86
78685;BME280;68002;52.310;6.990;2023-05-20T11:08:08;101869.38;;;23.36;32.27
78685;BME280;68002;52.310;6.990;2023-05-20T11:10:36;101875.94;;;23.20;32.30
78685;BME280;68002;52.310;6.990;2023-05-20T11:13:03;101869.69;;;23.05;32.65
78685;BME280;68002;52.310;6.990;2023-05-20T11:15:30;101852.25;;;23.27;32.59
78685;BME280;68002;52.310;6.990;2023-05-20T11:18:00;101857.94;;;23.05;32.23
78685;BME280;68002;52.310;6.990;2023-05-20T11:20:26;101845.22;;;22.90;32.05
78685;BME280;68002;52.310;6.990;2023-05-20T11:22:55;101849.25;;;22.94;32.28
78685;BME280;68002;52.310;6.990;2023-05-20T11:25:21;101836.03;;;22.98;32.53
78685;BME280;68002;52.310;6.990;2023-05-20T11:27:46;101839.75;;;23.33;31.98
78685;BME280;68002;52.310;6.990;2023-05-20T11:30:14;101817.44;;;23.29;31.52
78685;BME280;68002;52.310;6.990;2023-05-20T11:32:40;101837.91;;;23.74;31.69
78685;BME280;68002;52.310;6.990;2023-05-20T11:35:06;101832.13;;;23.90;31.51
78685;BME280;68002;52.310;6.990;2023-05-20T11:37:31;101834.00;;;24.24;30.70
78685;BME280;68002;52.310;6.990;2023-05-20T11:40:04;101829.53;;;24.10;30.89
78685;BME280;68002;52.310;6.990;2023-05-20T11:42:29;101818.06;;;24.34;30.58
78685;BME280;68002;52.310;6.990;2023-05-20T11:44:54;101823.00;;;24.11;30.60
78685;BME280;68002;52.310;6.990;2023-05-20T11:47:23;101841.63;;;24.28;29.75
78685;BME280;68002;52.310;6.990;2023-05-20T11:49:49;101830.19;;;24.18;30.63
78685;BME280;68002;52.310;6.990;2023-05-20T11:52:14;101821.72;;;23.72;30.56
78685;BME280;68002;52.310;6.990;2023-05-20T11:54:39;101816.38;;;23.58;30.83
78685;BME280;68002;52.310;6.990;2023-05-20T11:57:04;101825.66;;;23.29;31.65
78685;BME280;68002;52.310;6.990;2023-05-20T11:59:30;101812.31;;;23.81;30.61
78685;BME280;68002;52.310;6.990;2023-05-20T12:01:55;101804.34;;;23.86;30.58
78685;BME280;68002;52.310;6.990;2023-05-20T12:04:20;101808.16;;;23.85;31.04
78685;BME280;68002;52.310;6.990;2023-05-20T12:06:45;101800.94;;;24.12;30.44
78685;BME280;68002;52.310;6.990;2023-05-20T12:09:11;101810.69;;;24.28;30.46
78685;BME280;68002;52.310;6.990;2023-05-20T12:11:37;101809.47;;;24.43;31.11
78685;BME280;68002;52.310;6.990;2023-05-20T12:14:03;101816.78;;;24.30;30.64
78685;BME280;68002;52.310;6.990;2023-05-20T12:16:30;101807.03;;;24.08;30.06
78685;BME280;68002;52.310;6.990;2023-05-20T12:18:55;101809.66;;;24.42;29.21
78685;BME280;68002;52.310;6.990;2023-05-20T12:21:20;101809.38;;;24.97;29.80
78685;BME280;68002;52.310;6.990;2023-05-20T12:23:46;101802.41;;;25.66;29.01
78685;BME280;68002;52.310;6.990;2023-05-20T12:26:11;101795.19;;;25.78;27.60
78685;BME280;68002;52.310;6.990;2023-05-20T12:28:36;101785.38;;;25.58;28.41
78685;BME280;68002;52.310;6.990;2023-05-20T12:31:01;101786.44;;;25.11;28.89
78685;BME280;68002;52.310;6.990;2023-05-20T12:33:26;101783.06;;;24.83;29.53
78685;BME280;68002;52.310;6.990;2023-05-20T12:35:52;101782.16;;;24.63;29.42
78685;BME280;68002;52.310;6.990;2023-05-20T12:38:17;101768.75;;;24.81;29.84
78685;BME280;68002;52.310;6.990;2023-05-20T12:40:42;101775.41;;;24.59;29.28
78685;BME280;68002;52.310;6.990;2023-05-20T12:43:07;101775.81;;;24.56;30.15
78685;BME280;68002;52.310;6.990;2023-05-20T12:45:33;101766.75;;;24.49;29.73
78685;BME280;68002;52.310;6.990;2023-05-20T12:47:58;101769.13;;;24.78;29.37
78685;BME280;68002;52.310;6.990;2023-05-20T12:50:23;101758.84;;;25.00;28.46
78685;BME280;68002;52.310;6.990;2023-05-20T12:52:48;101774.00;;;25.28;28.85
78685;BME280;68002;52.310;6.990;2023-05-20T12:55:14;101770.00;;;24.98;29.14